Time;durP1;ratioP1;P1;durP2;ratioP2;P2;SDS_P1;SDS_P2;PMS_P1;PMS_P2;Temp;Humidity;BMP_temperature;BMP_pressure;BME280_temperature;BME280_humidity;BME280_pressure;Samples;Min_cycle;Max_cycle;Signal;HPM_P1;HPM_P2
2022/11/09 00:02:04;;;;;;;0.28;0.28;;;11.40;99.90;;;;;;5022738;28;20022;-75
2022/11/09 00:04:30;;;;;;;0.65;0.65;;;11.40;99.90;;;;;;5022723;28;20445;-75
2022/11/09 00:06:55;;;;;;;0.20;0.20;;;11.40;99.90;;;;;;5032418;28;20032;-75
2022/11/09 00:09:21;;;;;;;0.20;0.20;;;11.40;99.90;;;;;;5032786;28;20028;-75
2022/11/09 00:11:46;;;;;;;0.40;0.40;;;11.40;99.90;;;;;;5032541;28;20104;-75
2022/11/09 00:14:16;;;;;;;0.20;0.20;;;11.40;99.90;;;;;;5031452;28;20045;-74
2022/11/09 00:16:41;;;;;;;0.22;0.22;;;11.30;99.90;;;;;;5032410;28;20028;-76
2022/11/09 00:19:07;;;;;;;0.20;0.20;;;11.20;99.90;;;;;;5031116;28;20112;-76
2022/11/09 00:21:33;;;;;;;0.65;0.65;;;11.30;99.90;;;;;;5031117;28;20411;-76
2022/11/09 00:23:58;;;;;;;0.30;0.30;;;11.20;99.90;;;;;;5030884;28;20017;-75
2022/11/09 00:26:24;;;;;;;8.82;2.30;;;11.20;99.90;;;;;;5031044;28;20426;-75
2022/11/09 00:28:49;;;;;;;0.20;0.20;;;11.30;99.90;;;;;;5031221;28;20028;-76
2022/11/09 00:31:20;;;;;;;0.60;0.60;;;11.20;99.90;;;;;;5028018;28;20104;-76
2022/11/09 00:33:48;;;;;;;1.17;1.17;;;11.20;99.90;;;;;;5011907;28;20018;-77
2022/11/09 00:36:13;;;;;;;0.20;0.20;;;11.20;99.90;;;;;;5029597;28;20033;-76
2022/11/09 00:38:39;;;;;;;0.20;0.20;;;11.10;99.90;;;;;;5030739;28;20025;-76
2022/11/09 00:41:07;;;;;;;0.45;0.45;;;11.10;99.90;;;;;;5032021;28;20557;-76
2022/11/09 00:43:33;;;;;;;0.20;0.20;;;11.00;99.90;;;;;;5032068;28;20499;-74
2022/11/09 00:45:58;;;;;;;0.20;0.20;;;10.90;99.90;;;;;;5032058;28;20029;-75
2022/11/09 00:48:24;;;;;;;0.20;0.20;;;10.80;99.90;;;;;;5031901;28;20476;-75
2022/11/09 00:50:51;;;;;;;0.50;0.50;;;10.80;99.90;;;;;;5032001;28;20422;-75
2022/11/09 00:53:17;;;;;;;1.05;1.05;;;10.80;99.90;;;;;;5030556;28;20043;-75
2022/11/09 00:55:52;;;;;;;0.90;0.68;;;10.70;99.90;;;;;;5025283;28;20036;-73
2022/11/09 00:58:17;;;;;;;0.20;0.20;;;10.80;99.90;;;;;;5024203;28;20513;-74
2022/11/09 01:00:43;;;;;;;0.20;0.20;;;10.70;99.90;;;;;;5030482;28;20061;-74
2022/11/09 01:03:08;;;;;;;0.20;0.20;;;10.70;99.90;;;;;;5007539;28;20120;-74
2022/11/09 01:05:38;;;;;;;0.20;0.20;;;10.70;99.90;;;;;;5022969;28;20097;-74
2022/11/09 01:08:04;;;;;;;0.20;0.20;;;10.60;99.90;;;;;;5030477;28;20387;-74
2022/11/09 01:10:30;;;;;;;0.28;0.28;;;10.50;99.90;;;;;;5030434;28;20026;-74
2022/11/09 01:12:55;;;;;;;0.30;0.30;;;10.50;99.90;;;;;;5031580;28;20048;-75
2022/11/09 01:15:21;;;;;;;0.20;0.20;;;10.60;99.90;;;;;;5025081;28;20481;-75
2022/11/09 01:17:47;;;;;;;0.20;0.20;;;10.50;99.90;;;;;;5030026;28;20026;-75
2022/11/09 01:20:13;;;;;;;0.57;0.57;;;10.50;99.90;;;;;;5030196;28;20112;-74
2022/11/09 01:22:39;;;;;;;0.20;0.20;;;10.50;99.90;;;;;;5027178;28;20030;-74
2022/11/09 01:25:05;;;;;;;0.35;0.35;;;10.50;99.90;;;;;;5030385;28;20026;-74
2022/11/09 01:27:31;;;;;;;0.30;0.30;;;10.40;99.90;;;;;;5031338;28;20022;-75
2022/11/09 01:29:57;;;;;;;0.20;0.20;;;10.40;99.90;;;;;;5030352;28;20072;-74
2022/11/09 01:32:23;;;;;;;0.20;0.20;;;10.40;99.90;;;;;;5030273;28;20045;-75
2022/11/09 01:34:48;;;;;;;0.20;0.20;;;10.40;99.90;;;;;;5030237;28;20029;-74
2022/11/09 01:37:14;;;;;;;0.30;0.30;;;10.40;99.90;;;;;;5031581;28;20032;-74
2022/11/09 01:39:39;;;;;;;0.20;0.20;;;10.40;99.90;;;;;;5021400;28;20101;-74
2022/11/09 01:42:05;;;;;;;0.40;0.40;;;10.40;99.90;;;;;;5022781;28;20029;-73
2022/11/09 01:44:32;;;;;;;0.20;0.20;;;10.40;99.90;;;;;;5030203;28;20040;-75
2022/11/09 01:47:05;;;;;;;0.20;0.20;;;10.40;99.90;;;;;;5030130;28;20026;-75
2022/11/09 01:49:31;;;;;;;0.20;0.20;;;10.40;99.90;;;;;;5004692;28;20026;-74
2022/11/09 01:52:10;;;;;;;0.20;0.20;;;10.20;99.90;;;;;;5030187;28;20037;-73
2022/11/09 01:54:39;;;;;;;0.20;0.20;;;10.20;99.90;;;;;;5024886;28;20282;-75
2022/11/09 01:57:10;;;;;;;0.20;0.20;;;10.30;99.90;;;;;;5020432;28;20022;-75
2022/11/09 01:59:41;;;;;;;0.25;0.25;;;10.30;99.90;;;;;;5035182;28;20030;-75
2022/11/09 02:02:07;;;;;;;0.43;0.43;;;10.40;99.90;;;;;;5024648;28;20029;-75
2022/11/09 02:04:38;;;;;;;0.30;0.30;;;10.40;99.90;;;;;;5026348;28;20108;-74
2022/11/09 02:07:04;;;;;;;0.20;0.20;;;10.50;99.90;;;;;;5034731;28;20032;-75
2022/11/09 02:09:52;;;;;;;0.30;0.30;;;10.50;99.90;;;;;;5034981;28;20021;-74
2022/11/09 02:12:20;;;;;;;0.20;0.20;;;10.40;99.90;;;;;;5034889;28;20017;-75
2022/11/09 02:14:48;;;;;;;0.20;0.20;;;10.40;99.90;;;;;;5034714;28;20120;-75
2022/11/09 02:17:14;;;;;;;0.25;0.25;;;10.40;99.90;;;;;;5034795;28;20509;-75
2022/11/09 02:19:39;;;;;;;0.20;0.20;;;10.30;99.90;;;;;;5033410;28;20021;-75
2022/11/09 02:22:05;;;;;;;0.20;0.20;;;10.30;99.90;;;;;;5034765;28;20569;-75
2022/11/09 02:24:32;;;;;;;0.20;0.20;;;10.30;99.90;;;;;;5034802;28;20419;-75
2022/11/09 02:26:58;;;;;;;0.20;0.20;;;10.30;99.90;;;;;;5034757;28;20071;-74
2022/11/09 02:29:32;;;;;;;0.20;0.20;;;10.40;99.90;;;;;;5034672;28;20426;-75
2022/11/09 02:32:01;;;;;;;0.30;0.30;;;10.40;99.90;;;;;;5034469;28;20027;-74
2022/11/09 02:34:27;;;;;;;0.20;0.20;;;10.30;99.90;;;;;;5034620;28;20242;-75
2022/11/09 02:36:52;;;;;;;0.20;0.20;;;10.40;99.90;;;;;;5034347;28;20112;-75
2022/11/09 02:39:25;;;;;;;0.20;0.20;;;10.40;99.90;;;;;;5033194;28;20033;-75
2022/11/09 02:42:04;;;;;;;0.40;0.40;;;10.40;99.90;;;;;;5033015;28;20441;-75
2022/11/09 02:44:34;;;;;;;0.30;0.30;;;10.40;99.90;;;;;;5029539;28;20014;-74
2022/11/09 02:47:00;;;;;;;0.20;0.20;;;10.40;99.90;;;;;;5014149;28;20369;-75
2022/11/09 02:49:25;;;;;;;1.10;1.10;;;10.40;99.90;;;;;;5032832;28;20026;-75
2022/11/09 02:51:51;;;;;;;0.20;0.20;;;10.30;99.90;;;;;;5053942;22;20084;-75
2022/11/09 02:54:16;;;;;;;0.30;0.30;;;10.30;99.90;;;;;;5032922;28;20559;-75
2022/11/09 02:56:42;;;;;;;0.20;0.20;;;10.30;99.90;;;;;;5019623;28;20483;-74
2022/11/09 02:59:08;;;;;;;0.20;0.20;;;10.30;99.90;;;;;;5027200;28;20026;-73
2022/11/09 03:01:33;;;;;;;0.30;0.30;;;10.30;99.90;;;;;;5020320;28;20416;-73
2022/11/09 03:03:59;;;;;;;0.20;0.20;;;10.20;99.90;;;;;;5000973;28;20026;-73
2022/11/09 03:06:33;;;;;;;2.13;1.33;;;10.30;99.90;;;;;;5014386;28;20066;-73
2022/11/09 03:09:04;;;;;;;0.20;0.20;;;10.20;99.90;;;;;;4989873;28;20046;-74
2022/11/09 03:11:29;;;;;;;0.20;0.20;;;10.20;99.90;;;;;;5013981;28;20038;-73
2022/11/09 03:13:56;;;;;;;0.30;0.30;;;10.30;99.90;;;;;;5012893;28;20534;-73
2022/11/09 03:16:21;;;;;;;0.85;0.85;;;10.30;99.90;;;;;;5011078;28;20404;-74
2022/11/09 03:18:47;;;;;;;0.40;0.40;;;10.30;99.90;;;;;;4998473;28;20495;-73
2022/11/09 03:21:12;;;;;;;0.22;0.22;;;10.20;99.90;;;;;;5005555;28;20036;-73
2022/11/09 03:23:38;;;;;;;0.30;0.30;;;10.20;99.90;;;;;;5013762;28;20566;-73
2022/11/09 03:26:03;;;;;;;0.30;0.30;;;10.20;99.90;;;;;;5013597;28;20026;-73
2022/11/09 03:28:29;;;;;;;0.20;0.20;;;10.20;99.90;;;;;;5013514;28;20030;-74
2022/11/09 03:30:54;;;;;;;0.38;0.38;;;10.30;99.90;;;;;;5013573;28;20388;-73
2022/11/09 03:33:20;;;;;;;0.20;0.20;;;10.20;99.90;;;;;;5004489;28;20387;-74
2022/11/09 03:35:45;;;;;;;0.30;0.30;;;10.20;99.90;;;;;;5010539;28;20019;-73
2022/11/09 03:38:12;;;;;;;0.30;0.30;;;10.20;99.90;;;;;;5001569;28;20389;-74
2022/11/09 03:40:38;;;;;;;0.30;0.30;;;10.20;99.90;;;;;;5013339;28;20053;-74
2022/11/09 03:43:04;;;;;;;0.30;0.30;;;10.20;99.90;;;;;;5013406;28;20435;-73
2022/11/09 03:45:29;;;;;;;0.30;0.30;;;10.10;99.90;;;;;;5013358;28;20510;-73
2022/11/09 03:47:58;;;;;;;0.30;0.30;;;10.10;99.90;;;;;;5013141;28;20029;-73
2022/11/09 03:50:24;;;;;;;0.30;0.30;;;10.10;99.90;;;;;;5013366;28;20018;-73
2022/11/09 03:52:50;;;;;;;0.80;0.80;;;10.10;99.90;;;;;;5013103;28;20057;-73
2022/11/09 03:55:15;;;;;;;0.30;0.30;;;10.10;99.90;;;;;;5007683;28;20122;-73
2022/11/09 03:57:46;;;;;;;0.30;0.30;;;10.10;99.90;;;;;;5004040;28;20033;-74
2022/11/09 04:00:14;;;;;;;0.30;0.30;;;10.10;99.90;;;;;;5012492;28;20022;-75
2022/11/09 04:02:39;;;;;;;0.30;0.30;;;10.10;99.90;;;;;;5009952;28;20488;-75
2022/11/09 04:05:05;;;;;;;0.30;0.30;;;10.20;99.90;;;;;;5011703;28;20018;-75
2022/11/09 04:07:31;;;;;;;0.35;0.35;;;10.20;99.90;;;;;;5012874;28;20029;-74
2022/11/09 04:09:57;;;;;;;0.30;0.30;;;10.20;99.90;;;;;;5011749;28;20026;-75
2022/11/09 04:12:23;;;;;;;1.05;1.05;;;10.20;99.90;;;;;;5012802;28;20084;-74
2022/11/09 04:14:48;;;;;;;0.30;0.30;;;10.20;99.90;;;;;;5011501;28;20026;-75
2022/11/09 04:17:14;;;;;;;0.40;0.40;;;10.20;99.90;;;;;;5011412;28;20022;-74
2022/11/09 04:19:39;;;;;;;1.23;1.23;;;10.20;99.90;;;;;;5012765;28;20025;-74
2022/11/09 04:22:05;;;;;;;0.40;0.40;;;10.20;99.90;;;;;;5013419;28;20079;-73
2022/11/09 04:24:30;;;;;;;0.40;0.40;;;10.10;99.90;;;;;;5012830;28;20439;-74
2022/11/09 04:26:56;;;;;;;0.30;0.30;;;10.00;99.90;;;;;;5012641;28;20030;-75
2022/11/09 04:29:21;;;;;;;0.40;0.40;;;10.00;99.90;;;;;;5012801;28;20017;-74
2022/11/09 04:31:48;;;;;;;0.40;0.40;;;10.00;99.90;;;;;;5012837;28;20030;-74
2022/11/09 04:34:14;;;;;;;0.40;0.40;;;9.90;99.90;;;;;;5012732;28;20056;-74
2022/11/09 04:36:40;;;;;;;0.40;0.40;;;9.90;99.90;;;;;;5011684;28;20033;-73
2022/11/09 04:39:05;;;;;;;0.40;0.40;;;9.80;99.90;;;;;;5012509;28;20030;-74
2022/11/09 04:41:31;;;;;;;1.05;1.05;;;9.80;99.90;;;;;;5012723;28;20033;-74
2022/11/09 04:43:56;;;;;;;0.40;0.40;;;9.90;99.90;;;;;;5012612;28;20030;-74
2022/11/09 04:46:22;;;;;;;0.40;0.40;;;9.90;99.90;;;;;;5012886;28;20494;-74
2022/11/09 04:48:47;;;;;;;0.40;0.40;;;9.90;99.90;;;;;;5012276;28;20036;-73
2022/11/09 04:51:13;;;;;;;0.40;0.40;;;9.90;99.90;;;;;;5012377;28;20022;-74
2022/11/09 04:53:39;;;;;;;0.40;0.40;;;10.00;99.90;;;;;;5007084;28;20080;-74
2022/11/09 04:56:06;;;;;;;0.40;0.40;;;10.00;99.90;;;;;;5009215;28;20036;-74
2022/11/09 04:58:32;;;;;;;1.58;1.48;;;9.90;99.90;;;;;;5006890;28;20050;-74
2022/11/09 05:01:06;;;;;;;4.00;3.83;;;9.80;99.90;;;;;;4998261;28;20026;-75
2022/11/09 05:03:32;;;;;;;0.50;0.50;;;9.80;99.90;;;;;;5005351;28;20021;-74
2022/11/09 05:05:57;;;;;;;1.75;1.65;;;9.90;99.90;;;;;;5002295;28;20021;-74
2022/11/09 05:08:23;;;;;;;0.57;0.57;;;9.90;99.90;;;;;;5005639;28;20080;-73
2022/11/09 05:10:49;;;;;;;0.55;0.55;;;10.00;99.90;;;;;;5003044;28;20491;-73
2022/11/09 05:13:14;;;;;;;0.50;0.50;;;10.00;99.90;;;;;;4994255;28;20511;-73
2022/11/09 05:15:40;;;;;;;8.00;7.53;;;9.80;99.90;;;;;;5003203;28;20033;-73
2022/11/09 05:18:06;;;;;;;1.65;1.65;;;9.70;99.90;;;;;;4998639;28;20030;-74
2022/11/09 05:20:32;;;;;;;2.47;2.35;;;9.60;99.90;;;;;;5003949;28;20066;-74
2022/11/09 05:25:43;;;;;;;0.68;0.68;;;9.70;99.90;;;;;;5008182;28;20036;-74
2022/11/09 05:28:10;;;;;;;0.50;0.50;;;9.80;99.90;;;;;;5000736;28;20018;-73
2022/11/09 05:30:35;;;;;;;0.60;0.60;;;9.70;99.90;;;;;;5004787;28;20061;-72
2022/11/09 05:33:01;;;;;;;0.50;0.50;;;9.70;99.90;;;;;;5007198;28;20064;-73
2022/11/09 05:35:26;;;;;;;0.50;0.50;;;9.80;99.90;;;;;;5002311;28;20034;-73
2022/11/09 05:37:52;;;;;;;0.60;0.60;;;9.70;99.90;;;;;;5011542;28;20051;-72
2022/11/09 05:40:18;;;;;;;0.50;0.50;;;9.70;99.90;;;;;;5010465;28;20423;-73
2022/11/09 05:42:44;;;;;;;0.60;0.60;;;9.70;99.90;;;;;;5000465;28;20022;-74
2022/11/09 05:45:16;;;;;;;0.65;0.65;;;9.70;99.90;;;;;;5011819;28;20022;-73
2022/11/09 05:47:43;;;;;;;0.77;0.77;;;9.70;99.90;;;;;;5010252;28;20026;-74
2022/11/09 05:50:11;;;;;;;0.55;0.55;;;9.70;99.90;;;;;;4998563;28;20050;-73
2022/11/09 05:52:37;;;;;;;0.68;0.68;;;9.60;99.90;;;;;;5010178;28;20030;-73
2022/11/09 05:55:03;;;;;;;0.60;0.60;;;9.60;99.90;;;;;;5010799;28;20048;-74
2022/11/09 05:57:28;;;;;;;0.90;0.90;;;9.60;99.90;;;;;;4985373;28;20482;-73
2022/11/09 05:59:54;;;;;;;1.33;1.33;;;9.50;99.90;;;;;;4998492;28;20047;-72
2022/11/09 06:02:20;;;;;;;0.70;0.70;;;9.50;99.90;;;;;;4998315;28;20015;-73
2022/11/09 06:04:45;;;;;;;1.25;1.25;;;9.50;99.90;;;;;;4990626;28;20113;-72
2022/11/09 06:07:11;;;;;;;0.80;0.80;;;9.50;99.90;;;;;;5011210;28;20503;-73
2022/11/09 06:09:36;;;;;;;0.82;0.82;;;9.50;99.90;;;;;;4997299;28;20026;-73
2022/11/09 06:12:02;;;;;;;0.80;0.80;;;9.40;99.90;;;;;;4997930;28;20488;-73
2022/11/09 06:14:27;;;;;;;1.00;1.00;;;9.40;99.90;;;;;;4998599;28;20544;-72
2022/11/09 06:16:53;;;;;;;1.10;1.10;;;9.30;99.90;;;;;;5010775;28;20395;-73
2022/11/09 06:19:18;;;;;;;1.00;1.00;;;9.30;99.90;;;;;;4999058;28;20088;-73
2022/11/09 06:21:44;;;;;;;1.00;1.00;;;9.30;99.90;;;;;;4991833;28;20030;-73
2022/11/09 06:24:09;;;;;;;0.90;0.90;;;9.20;99.90;;;;;;4995396;28;20435;-73
2022/11/09 06:26:36;;;;;;;2.38;2.28;;;9.30;99.90;;;;;;5008547;28;20025;-73
2022/11/09 06:29:01;;;;;;;1.08;1.08;;;9.30;99.90;;;;;;4995192;28;20077;-73
2022/11/09 06:31:27;;;;;;;1.20;1.20;;;9.30;99.90;;;;;;4995240;28;20035;-73
2022/11/09 06:33:53;;;;;;;1.63;1.63;;;9.40;99.90;;;;;;5007366;28;20392;-73
2022/11/09 06:36:18;;;;;;;1.20;1.20;;;9.30;99.90;;;;;;5001508;28;20363;-73
2022/11/09 06:38:49;;;;;;;1.10;1.10;;;9.30;99.90;;;;;;5002618;28;20030;-74
2022/11/09 06:41:15;;;;;;;1.10;1.10;;;9.40;99.90;;;;;;5008272;28;20053;-74
2022/11/09 06:43:41;;;;;;;1.20;1.20;;;9.50;99.90;;;;;;4995160;28;20113;-74
2022/11/09 06:46:06;;;;;;;1.27;1.27;;;9.50;99.90;;;;;;5013044;28;20169;-73
2022/11/09 06:48:32;;;;;;;2.63;2.53;;;9.50;99.90;;;;;;5000299;28;20026;-73
2022/11/09 06:51:01;;;;;;;1.83;1.83;;;9.50;99.90;;;;;;5008181;28;20038;-73
2022/11/09 06:53:29;;;;;;;1.77;1.60;;;9.50;99.90;;;;;;5007646;28;20057;-73
2022/11/09 06:55:57;;;;;;;1.48;1.48;;;9.50;99.90;;;;;;5014517;28;20057;-73
2022/11/09 06:58:23;;;;;;;1.50;1.50;;;9.40;99.90;;;;;;5001145;28;20030;-73
2022/11/09 07:00:49;;;;;;;1.60;1.60;;;9.50;99.90;;;;;;5005639;28;20113;-73
2022/11/09 07:03:16;;;;;;;1.50;1.50;;;9.50;99.90;;;;;;5007880;28;20026;-73
2022/11/09 07:05:42;;;;;;;9.15;5.35;;;9.40;99.90;;;;;;5002120;28;20025;-73
2022/11/09 07:08:09;;;;;;;1.45;1.45;;;9.40;99.90;;;;;;4998953;28;20033;-73
2022/11/09 07:10:34;;;;;;;1.58;1.58;;;9.40;99.90;;;;;;4994614;28;20053;-73
2022/11/09 07:13:02;;;;;;;1.30;1.30;;;9.50;99.90;;;;;;4995520;28;20480;-74
2022/11/09 07:15:27;;;;;;;1.50;1.50;;;9.40;99.90;;;;;;5006403;28;20113;-73
2022/11/09 07:17:57;;;;;;;1.45;1.45;;;9.40;99.90;;;;;;4995598;28;20457;-73
2022/11/09 07:20:24;;;;;;;1.40;1.40;;;9.40;99.90;;;;;;5004206;28;20022;-73
2022/11/09 07:22:50;;;;;;;2.45;2.35;;;9.40;99.90;;;;;;5007562;28;20054;-74
2022/11/09 07:25:15;;;;;;;1.92;1.90;;;9.40;99.90;;;;;;5002872;28;20061;-74
2022/11/09 07:27:41;;;;;;;1.45;1.45;;;9.50;99.90;;;;;;5000728;28;20073;-73
2022/11/09 07:30:07;;;;;;;1.90;1.80;;;9.50;99.90;;;;;;5014015;28;20026;-73
2022/11/09 07:32:34;;;;;;;1.70;1.70;;;9.50;99.90;;;;;;5000471;28;20105;-73
2022/11/09 07:35:00;;;;;;;1.58;1.58;;;9.50;99.90;;;;;;5004271;28;20030;-73
2022/11/09 07:37:25;;;;;;;1.60;1.60;;;9.60;99.90;;;;;;4995922;28;20499;-73
2022/11/09 07:39:51;;;;;;;1.70;1.70;;;9.60;99.90;;;;;;5005105;28;20041;-73
2022/11/09 07:42:16;;;;;;;2.60;2.50;;;9.60;99.90;;;;;;4993823;28;20072;-74
2022/11/09 07:44:42;;;;;;;2.00;2.00;;;9.60;99.90;;;;;;5000586;28;20392;-74
2022/11/09 07:47:07;;;;;;;1.95;1.90;;;9.60;99.90;;;;;;5000147;28;20103;-73
2022/11/09 07:49:34;;;;;;;2.20;2.10;;;9.60;99.90;;;;;;5005651;28;20014;-74
2022/11/09 07:51:59;;;;;;;2.92;2.83;;;9.70;99.90;;;;;;4993583;28;20031;-74
2022/11/09 07:54:25;;;;;;;2.92;2.83;;;9.70;99.90;;;;;;5001433;28;20037;-74
2022/11/09 07:56:51;;;;;;;2.40;2.30;;;9.70;99.90;;;;;;4997424;28;20050;-73
2022/11/09 07:59:16;;;;;;;3.10;3.00;;;9.80;99.90;;;;;;4993789;28;20069;-73
2022/11/09 08:01:42;;;;;;;3.35;3.25;;;9.80;99.90;;;;;;4993517;28;20089;-73
2022/11/09 08:04:07;;;;;;;2.88;2.78;;;9.80;99.90;;;;;;5001500;28;20033;-74
2022/11/09 08:06:33;;;;;;;3.20;3.10;;;9.80;99.90;;;;;;5000025;28;20657;-73
2022/11/09 08:08:59;;;;;;;3.20;3.10;;;9.90;99.90;;;;;;5005161;28;20479;-73
2022/11/09 08:11:25;;;;;;;3.63;3.53;;;9.90;99.90;;;;;;4993126;28;20398;-73
2022/11/09 08:13:51;;;;;;;3.60;3.50;;;9.80;99.90;;;;;;5005312;28;20027;-73
2022/11/09 08:16:16;;;;;;;3.85;3.75;;;9.80;99.90;;;;;;5006419;28;20064;-73
2022/11/09 08:18:42;;;;;;;3.75;3.65;;;9.70;99.90;;;;;;5005054;28;20450;-73
2022/11/09 08:21:07;;;;;;;4.10;3.90;;;9.80;99.90;;;;;;4993897;28;20030;-73
2022/11/09 08:23:33;;;;;;;5.82;5.53;;;9.80;99.90;;;;;;5005367;28;20018;-73
2022/11/09 08:26:03;;;;;;;7.82;4.95;;;9.80;99.90;;;;;;5006807;28;20030;-73
2022/11/09 08:28:29;;;;;;;4.35;4.15;;;9.80;99.90;;;;;;5002203;28;20034;-73
2022/11/09 08:30:57;;;;;;;4.45;4.35;;;9.70;99.90;;;;;;5001171;28;20441;-73
2022/11/09 08:33:23;;;;;;;5.38;5.18;;;9.70;99.90;;;;;;5001113;28;20484;-74
2022/11/09 08:35:49;;;;;;;4.55;4.43;;;9.60;99.90;;;;;;4993240;28;20042;-74
2022/11/09 08:38:14;;;;;;;5.50;5.28;;;9.60;99.90;;;;;;5003201;28;20022;-74
2022/11/09 08:40:40;;;;;;;5.43;5.22;;;9.50;99.90;;;;;;4992574;28;20488;-73
2022/11/09 08:43:07;;;;;;;7.10;6.60;;;9.60;99.90;;;;;;5000582;28;20380;-74
2022/11/09 08:45:35;;;;;;;6.22;5.93;;;9.60;99.90;;;;;;4995151;28;20427;-73
2022/11/09 08:48:02;;;;;;;8.02;7.68;;;9.60;99.90;;;;;;4992458;28;20030;-73
2022/11/09 08:50:29;;;;;;;6.15;5.95;;;9.60;99.90;;;;;;5002055;28;20033;-73
2022/11/09 08:52:55;;;;;;;9.05;8.70;;;9.60;99.90;;;;;;5000006;28;20041;-74
2022/11/09 08:55:21;;;;;;;6.13;5.93;;;9.50;99.90;;;;;;4994903;28;20030;-74
2022/11/09 08:57:47;;;;;;;7.30;7.07;;;9.50;99.90;;;;;;4991305;28;20026;-74
2022/11/09 09:00:14;;;;;;;5.80;5.60;;;9.50;99.90;;;;;;5008324;28;20392;-74
2022/11/09 09:02:40;;;;;;;6.40;6.20;;;9.50;99.90;;;;;;5012231;28;20022;-74
2022/11/09 09:05:06;;;;;;;7.75;7.45;;;9.50;99.90;;;;;;4996618;28;20031;-74
2022/11/09 09:07:32;;;;;;;6.80;6.60;;;9.50;99.90;;;;;;4999876;28;20075;-74
2022/11/09 09:09:57;;;;;;;7.50;6.97;;;9.60;99.90;;;;;;5010013;28;20045;-74
2022/11/09 09:12:23;;;;;;;6.40;6.20;;;9.60;99.90;;;;;;5001034;28;20569;-74
2022/11/09 09:14:49;;;;;;;7.05;6.75;;;9.70;99.90;;;;;;5012140;28;20498;-74
2022/11/09 09:17:15;;;;;;;7.07;6.78;;;9.60;99.90;;;;;;5010683;28;20025;-74
2022/11/09 09:19:40;;;;;;;6.75;6.55;;;9.60;99.90;;;;;;5012147;28;20054;-74
2022/11/09 09:22:06;;;;;;;6.53;6.32;;;9.60;99.90;;;;;;5011873;28;20030;-74
2022/11/09 09:24:31;;;;;;;7.00;6.80;;;9.70;99.90;;;;;;5009086;28;20476;-74
2022/11/09 09:26:57;;;;;;;7.60;7.30;;;9.70;99.90;;;;;;4992350;28;20030;-74
2022/11/09 09:29:22;;;;;;;6.40;6.20;;;9.80;99.90;;;;;;4991075;28;20065;-74
2022/11/09 09:31:48;;;;;;;7.88;7.57;;;9.90;99.90;;;;;;4999092;28;20028;-74
2022/11/09 09:34:14;;;;;;;10.60;8.10;;;9.90;99.90;;;;;;5011995;28;20106;-74
2022/11/09 09:36:39;;;;;;;8.40;8.10;;;10.00;99.90;;;;;;5010589;28;20080;-74
2022/11/09 09:39:05;;;;;;;7.70;7.40;;;10.10;99.90;;;;;;5010456;28;20065;-74
2022/11/09 09:41:38;;;;;;;10.52;9.90;;;10.20;99.90;;;;;;4990898;28;20073;-75
2022/11/09 09:44:22;;;;;;;9.38;9.02;;;10.30;99.90;;;;;;4994990;28;20019;-74
2022/11/09 09:47:05;;;;;;;7.40;7.10;;;10.30;99.90;;;;;;5010531;28;20026;-74
2022/11/09 09:49:35;;;;;;;8.05;7.75;;;10.40;99.90;;;;;;4972796;28;20026;-74
2022/11/09 09:52:12;;;;;;;8.18;7.82;;;10.40;99.90;;;;;;4972506;28;20100;-74
2022/11/09 09:54:42;;;;;;;8.07;7.78;;;10.50;99.90;;;;;;4972816;28;20035;-75
2022/11/09 09:57:19;;;;;;;7.63;7.32;;;10.70;99.90;;;;;;4994344;28;20033;-74
2022/11/09 09:59:50;;;;;;;8.80;8.50;;;10.70;99.90;;;;;;5015631;28;20033;-74
2022/11/09 10:02:21;;;;;;;9.25;8.88;;;10.80;99.90;;;;;;4996130;28;20069;-74
2022/11/09 10:04:47;;;;;;;9.85;9.40;;;10.80;99.90;;;;;;5007790;28;20250;-74
2022/11/09 10:07:26;;;;;;;10.07;9.57;;;10.80;99.90;;;;;;5015373;28;20034;-74
2022/11/09 10:10:11;;;;;;;10.27;9.63;;;11.00;99.90;;;;;;5015445;28;20072;-75
2022/11/09 10:12:52;;;;;;;9.00;8.60;;;11.00;99.90;;;;;;5014038;28;20030;-74
2022/11/09 10:15:46;;;;;;;8.25;7.95;;;11.10;99.90;;;;;;5008989;28;20077;-74
2022/11/09 10:18:18;;;;;;;10.10;9.70;;;11.20;99.90;;;;;;4999407;28;20048;-74
2022/11/09 10:21:04;;;;;;;9.50;9.10;;;11.20;99.90;;;;;;5015199;28;20446;-74
2022/11/09 10:23:52;;;;;;;10.65;10.15;;;11.30;99.90;;;;;;5013924;28;20026;-74
2022/11/09 10:26:29;;;;;;;11.23;10.82;;;11.20;99.90;;;;;;5015189;28;20030;-74
2022/11/09 10:29:00;;;;;;;11.27;10.88;;;11.20;99.90;;;;;;5013857;28;20033;-73
2022/11/09 10:31:31;;;;;;;11.60;10.98;;;11.10;99.90;;;;;;5015021;28;20081;-73
2022/11/09 10:34:02;;;;;;;12.75;12.23;;;11.10;99.90;;;;;;5001780;28;20030;-74
2022/11/09 10:36:35;;;;;;;11.18;10.77;;;11.20;99.90;;;;;;5007504;28;20034;-74
2022/11/09 10:39:00;;;;;;;13.18;12.57;;;11.10;99.90;;;;;;4995325;28;20030;-73
2022/11/09 10:41:26;;;;;;;13.57;13.02;;;11.00;99.90;;;;;;4995076;28;20034;-74
2022/11/09 10:43:51;;;;;;;11.63;11.23;;;11.00;99.90;;;;;;4993868;28;20052;-74
2022/11/09 10:46:17;;;;;;;12.90;12.40;;;11.10;99.90;;;;;;4995154;28;20069;-74
2022/11/09 10:48:42;;;;;;;10.13;9.73;;;11.10;99.90;;;;;;4995036;28;20050;-73
2022/11/09 10:51:37;;;;;;;12.90;12.30;;;11.20;99.90;;;;;;4995028;28;20085;-74
2022/11/09 10:54:23;;;;;;;11.40;10.95;;;11.20;99.90;;;;;;4995066;28;20034;-74
2022/11/09 10:56:59;;;;;;;12.60;12.00;;;11.20;99.90;;;;;;4995952;28;20029;-74
2022/11/09 10:59:33;;;;;;;11.25;10.85;;;11.10;99.90;;;;;;5005544;28;20041;-73
2022/11/09 11:01:58;;;;;;;10.60;10.20;;;11.10;99.90;;;;;;4993671;28;20048;-74
2022/11/09 11:04:25;;;;;;;10.75;10.30;;;11.00;99.90;;;;;;5004718;28;20476;-73
2022/11/09 11:06:51;;;;;;;11.13;10.73;;;11.10;99.90;;;;;;5000839;28;20018;-74
2022/11/09 11:09:19;;;;;;;10.35;9.95;;;11.10;99.90;;;;;;5014301;28;20022;-73
2022/11/09 11:11:45;;;;;;;10.10;9.70;;;11.10;99.90;;;;;;5000832;28;20054;-74
2022/11/09 11:14:42;;;;;;;10.30;9.80;;;11.20;99.90;;;;;;5002581;28;20065;-73
2022/11/09 11:17:41;;;;;;;10.65;10.25;;;11.30;99.90;;;;;;4982985;28;20022;-74
2022/11/09 11:20:25;;;;;;;13.05;12.45;;;11.30;99.90;;;;;;4975270;28;20037;-73
2022/11/09 11:23:12;;;;;;;11.02;10.63;;;11.30;99.90;;;;;;5001730;28;20029;-74
2022/11/09 11:25:53;;;;;;;12.95;12.35;;;11.30;99.90;;;;;;5002923;28;20023;-73
2022/11/09 11:28:44;;;;;;;10.20;9.80;;;11.50;99.90;;;;;;5013485;28;20030;-73
2022/11/09 11:31:16;;;;;;;11.30;10.68;;;11.40;99.90;;;;;;5008045;28;20042;-73
2022/11/09 11:33:42;;;;;;;13.15;12.55;;;11.50;99.90;;;;;;5004544;28;20022;-73
2022/11/09 11:36:32;;;;;;;11.82;11.18;;;11.40;99.90;;;;;;5000677;28;20146;-73
2022/11/09 11:39:14;;;;;;;11.20;10.80;;;11.50;99.90;;;;;;4999608;28;20070;-73
2022/11/09 11:41:54;;;;;;;13.05;12.45;;;11.80;99.90;;;;;;5003181;28;20045;-74
2022/11/09 11:44:29;;;;;;;12.48;11.98;;;12.00;99.90;;;;;;5000428;28;20479;-74
2022/11/09 11:47:23;;;;;;;9.07;8.77;;;12.20;99.90;;;;;;4996365;28;20488;-74
2022/11/09 11:50:04;;;;;;;11.30;10.85;;;12.50;99.90;;;;;;4984492;28;20133;-73
2022/11/09 11:52:50;;;;;;;9.00;8.70;;;12.50;99.90;;;;;;5006701;28;20034;-74
2022/11/09 11:55:21;;;;;;;9.38;9.07;;;12.70;99.90;;;;;;5005902;28;20085;-74
2022/11/09 11:58:05;;;;;;;9.23;8.93;;;12.60;99.90;;;;;;5002649;28;20021;-74
2022/11/09 12:00:39;;;;;;;10.02;9.63;;;12.70;99.90;;;;;;5000012;28;20030;-74
2022/11/09 12:03:13;;;;;;;9.52;9.13;;;12.70;99.90;;;;;;5009321;28;20073;-74
2022/11/09 12:06:02;;;;;;;10.40;9.90;;;12.80;99.90;;;;;;4986655;28;20448;-74
2022/11/09 12:09:13;;;;;;;9.98;9.68;;;12.80;99.90;;;;;;4999706;28;20510;-74
2022/11/09 12:12:20;;;;;;;10.00;9.70;;;13.00;99.90;;;;;;4961849;28;20042;-74
2022/11/09 12:14:46;;;;;;;;;;;12.90;99.90;;;;;;4978492;28;20448;-75
2022/11/09 12:17:54;;;;;;;11.27;10.87;;;13.10;99.90;;;;;;4999972;28;19933;-74
2022/11/09 12:20:22;;;;;;;8.90;8.60;;;13.10;99.90;;;;;;4987934;28;20030;-74
2022/11/09 12:23:09;;;;;;;10.13;9.73;;;13.10;99.90;;;;;;5010408;28;20103;-73
2022/11/09 12:25:48;;;;;;;10.88;10.38;;;13.10;99.90;;;;;;5002547;28;20487;-73
2022/11/09 12:28:54;;;;;;;10.02;9.27;;;13.20;99.90;;;;;;5012489;28;20017;-73
2022/11/09 12:31:39;;;;;;;9.07;8.77;;;13.10;99.90;;;;;;5008257;28;20026;-74
2022/11/09 12:34:20;;;;;;;10.02;9.63;;;13.30;99.90;;;;;;5001039;28;20030;-73
2022/11/09 12:37:01;;;;;;;8.30;8.00;;;13.40;99.90;;;;;;5001024;28;20449;-73
2022/11/09 12:39:37;;;;;;;9.75;9.38;;;13.40;99.90;;;;;;4995533;28;20034;-74
2022/11/09 12:42:09;;;;;;;9.15;8.77;;;13.40;99.90;;;;;;5010286;28;20029;-73
2022/11/09 12:44:47;;;;;;;8.20;7.90;;;13.50;99.90;;;;;;4984411;28;20102;-74
2022/11/09 12:47:18;;;;;;;9.32;8.93;;;13.50;99.90;;;;;;5010220;28;20026;-74
2022/11/09 12:49:45;;;;;;;8.70;8.40;;;13.60;99.90;;;;;;5010755;28;20033;-73
2022/11/09 12:52:13;;;;;;;7.75;7.45;;;13.70;99.90;;;;;;4997821;28;20030;-73
2022/11/09 12:54:44;;;;;;;7.30;7.10;;;13.90;99.90;;;;;;5010901;28;20049;-75
2022/11/09 12:57:20;;;;;;;7.97;7.68;;;13.80;99.90;;;;;;4996473;28;20117;-74
2022/11/09 12:59:50;;;;;;;6.53;6.32;;;13.90;99.90;;;;;;4999003;28;20026;-73
2022/11/09 13:02:38;;;;;;;6.60;6.40;;;14.00;99.90;;;;;;5000527;28;20113;-74